Time;durP1;ratioP1;P1;durP2;ratioP2;P2;SDS_P1;SDS_P2;PMS_P1;PMS_P2;Temp;Humidity;BMP_temperature;BMP_pressure;BME280_temperature;BME280_humidity;BME280_pressure;Samples;Min_cycle;Max_cycle;Signal;HPM_P1;HPM_P2
2022/04/24 00:01:07;;;;;;;;;;;;;;;17.60;69.89;100328.50;4950005;29;1574;-61
2022/04/24 00:03:33;;;;;;;;;;;;;;;17.65;69.77;100346.84;4943271;29;960;-61
2022/04/24 00:06:00;;;;;;;;;;;;;;;17.63;69.78;100348.78;4945816;29;1988;-61
2022/04/24 00:08:27;;;;;;;;;;;;;;;17.65;69.78;100345.00;4945002;28;1379;-61
2022/04/24 00:10:55;;;;;;;;;;;;;;;17.65;69.76;100338.81;4948202;29;1581;-61
2022/04/24 00:13:23;;;;;;;;;;;;;;;17.60;69.92;100335.69;4948720;29;1986;-61
2022/04/24 00:15:49;;;;;;;;;;;;;;;17.61;69.96;100334.72;4956071;28;1773;-61
2022/04/24 00:18:16;;;;;;;;;;;;;;;17.61;69.99;100343.56;4951024;29;971;-61
2022/04/24 00:20:43;;;;;;;;;;;;;;;17.61;70.35;100330.22;4953092;29;1764;-61
2022/04/24 00:23:10;;;;;;;;;;;;;;;17.59;69.92;100332.19;4949073;29;1637;-59
2022/04/24 00:25:36;;;;;;;;;;;;;;;17.60;70.22;100325.00;4952420;28;1633;-59
2022/04/24 00:28:04;;;;;;;;;;;;;;;17.59;70.08;100332.19;4950062;29;1630;-59
2022/04/24 00:30:31;;;;;;;;;;;;;;;17.62;70.17;100344.41;4950927;29;1574;-59
2022/04/24 00:32:57;;;;;;;;;;;;;;;17.59;69.97;100336.69;4956046;29;1902;-59
2022/04/24 00:35:24;;;;;;;;;;;;;;;17.58;69.85;100334.97;4953036;29;1708;-59
2022/04/24 00:37:50;;;;;;;;;;;;;;;17.59;69.87;100347.38;4948375;28;1402;-61
2022/04/24 00:40:18;;;;;;;;;;;;;;;17.55;70.38;100333.44;4954136;28;1537;-61
2022/04/24 00:42:45;;;;;;;;;;;;;;;17.57;70.26;100334.13;4948529;29;1561;-61
2022/04/24 00:45:13;;;;;;;;;;;;;;;17.59;70.07;100331.34;4949905;28;1399;-61
2022/04/24 00:47:41;;;;;;;;;;;;;;;17.57;70.02;100335.97;4946892;29;980;-61
2022/04/24 00:50:08;;;;;;;;;;;;;;;17.60;70.09;100343.72;4952434;28;1525;-61
2022/04/24 00:52:36;;;;;;;;;;;;;;;17.60;69.81;100349.06;4953206;29;1514;-61
2022/04/24 00:55:02;;;;;;;;;;;;;;;17.58;70.07;100341.16;4947970;29;1910;-61
2022/04/24 00:57:29;;;;;;;;;;;;;;;17.61;69.85;100351.59;4949176;29;1582;-61
2022/04/24 00:59:55;;;;;;;;;;;;;;;17.58;70.14;100351.03;4948816;28;1398;-61
2022/04/24 01:02:23;;;;;;;;;;;;;;;17.60;69.89;100349.06;4951642;29;1494;-61
2022/04/24 01:04:50;;;;;;;;;;;;;;;17.59;69.84;100352.72;4944918;28;1763;-61
2022/04/24 01:07:17;;;;;;;;;;;;;;;17.55;69.98;100337.91;4948987;28;1383;-61
2022/04/24 01:09:43;;;;;;;;;;;;;;;17.55;70.27;100340.59;4947835;29;1510;-61
2022/04/24 01:12:11;;;;;;;;;;;;;;;17.57;70.29;100344.84;4953511;29;1498;-61
2022/04/24 01:14:38;;;;;;;;;;;;;;;17.57;70.21;100354.69;4944400;29;1970;-61
2022/04/24 01:17:05;;;;;;;;;;;;;;;17.57;70.04;100360.03;4950111;29;1731;-61
2022/04/24 01:19:34;;;;;;;;;;;;;;;17.57;70.02;100344.00;4940755;28;1841;-61
2022/04/24 01:22:01;;;;;;;;;;;;;;;17.56;70.17;100361.00;4952347;29;1564;-61
2022/04/24 01:24:29;;;;;;;;;;;;;;;17.54;70.41;100354.94;4947064;28;1382;-63
2022/04/24 01:26:56;;;;;;;;;;;;;;;17.53;70.16;100331.84;4950216;29;1078;-62
2022/04/24 01:29:23;;;;;;;;;;;;;;;17.54;70.24;100349.59;4949572;29;1689;-61
2022/04/24 01:31:49;;;;;;;;;;;;;;;17.55;69.92;100352.16;4949233;29;1729;-61
2022/04/24 01:34:16;;;;;;;;;;;;;;;17.53;70.18;100342.56;4957184;29;1980;-61
2022/04/24 01:36:43;;;;;;;;;;;;;;;17.55;69.81;100345.94;4952825;29;1541;-61
2022/04/24 01:39:11;;;;;;;;;;;;;;;17.56;69.95;100356.50;4951423;29;1665;-61
2022/04/24 01:41:38;;;;;;;;;;;;;;;17.55;69.82;100351.28;4947327;28;1597;-61
2022/04/24 01:44:05;;;;;;;;;;;;;;;17.54;69.88;100362.97;4951650;29;2081;-62
2022/04/24 01:46:31;;;;;;;;;;;;;;;17.54;70.22;100346.94;4946626;28;2006;-61
2022/04/24 01:48:58;;;;;;;;;;;;;;;17.53;70.15;100347.91;4957884;29;1008;-61
2022/04/24 01:51:24;;;;;;;;;;;;;;;17.53;70.11;100358.59;4951546;29;1752;-60
2022/04/24 01:53:51;;;;;;;;;;;;;;;17.52;70.01;100368.44;4951633;29;1906;-59
2022/04/24 01:56:19;;;;;;;;;;;;;;;17.53;70.29;100371.97;4947289;29;1595;-59
2022/04/24 01:58:46;;;;;;;;;;;;;;;17.52;69.84;100367.59;4950964;28;1280;-59
2022/04/24 02:01:12;;;;;;;;;;;;;;;17.50;70.55;100381.94;4945886;29;1551;-59
2022/04/24 02:03:39;;;;;;;;;;;;;;;17.49;70.27;100371.41;4948879;29;1071;-59
2022/04/24 02:06:06;;;;;;;;;;;;;;;17.49;69.92;100379.44;4947044;28;1534;-59
2022/04/24 02:08:35;;;;;;;;;;;;;;;17.49;69.77;100374.09;4947213;29;1586;-59
2022/04/24 02:11:01;;;;;;;;;;;;;;;17.47;70.39;100376.88;4948404;29;1571;-59
2022/04/24 02:13:29;;;;;;;;;;;;;;;17.50;69.87;100371.25;4947559;28;1982;-60
2022/04/24 02:15:56;;;;;;;;;;;;;;;17.52;69.93;100367.59;4946476;28;1383;-59
2022/04/24 02:18:22;;;;;;;;;;;;;;;17.53;69.75;100382.66;4945763;29;984;-61
2022/04/24 02:20:49;;;;;;;;;;;;;;;17.50;69.93;100387.28;4945285;29;1737;-61
2022/04/24 02:23:16;;;;;;;;;;;;;;;17.50;69.80;100387.28;4951155;29;1522;-60
2022/04/24 02:25:42;;;;;;;;;;;;;;;17.52;70.28;100378.31;4950218;29;1630;-62
2022/04/24 02:28:09;;;;;;;;;;;;;;;17.52;69.93;100383.66;4945067;29;1011;-61
2022/04/24 02:30:37;;;;;;;;;;;;;;;17.50;70.06;100379.25;4944325;28;1466;-61
2022/04/24 02:33:03;;;;;;;;;;;;;;;17.48;69.98;100377.72;4954875;28;1522;-61
2022/04/24 02:35:31;;;;;;;;;;;;;;;17.47;69.72;100376.03;4949510;28;1968;-61
2022/04/24 02:37:57;;;;;;;;;;;;;;;17.48;69.82;100383.91;4947543;29;1886;-61
2022/04/24 02:40:24;;;;;;;;;;;;;;;17.48;69.98;100378.56;4950839;29;1594;-61
2022/04/24 02:42:51;;;;;;;;;;;;;;;17.48;69.71;100378.56;4949068;29;1617;-61
2022/04/24 02:45:18;;;;;;;;;;;;;;;17.44;70.30;100377.13;4947318;29;1539;-61
2022/04/24 02:47:46;;;;;;;;;;;;;;;17.48;70.34;100383.06;4947944;29;915;-61
2022/04/24 02:50:13;;;;;;;;;;;;;;;17.46;70.25;100387.69;4940712;29;1745;-61
2022/04/24 02:52:47;;;;;;;;;;;;;;;17.45;69.85;100394.88;4947802;29;1567;-61
2022/04/24 02:55:14;;;;;;;;;;;;;;;17.46;70.55;100396.56;4948986;29;1990;-61
2022/04/24 02:57:41;;;;;;;;;;;;;;;17.45;70.11;100391.38;4946974;28;1454;-61
2022/04/24 03:00:08;;;;;;;;;;;;;;;17.44;70.46;100409.22;4946515;29;1570;-61
2022/04/24 03:02:39;;;;;;;;;;;;;;;17.43;70.06;100399.53;4947405;29;1686;-61
2022/04/24 03:05:07;;;;;;;;;;;;;;;17.45;69.97;100402.06;4951394;29;1626;-61
2022/04/24 03:07:34;;;;;;;;;;;;;;;17.46;70.05;100409.09;4948126;29;1586;-61
2022/04/24 03:10:00;;;;;;;;;;;;;;;17.47;70.14;100410.78;4949291;29;1886;-61
2022/04/24 03:12:29;;;;;;;;;;;;;;;17.46;70.17;100407.25;4953261;28;1723;-56
2022/04/24 03:14:56;;;;;;;;;;;;;;;17.49;70.23;100416.84;4947014;29;1979;-56
2022/04/24 03:17:22;;;;;;;;;;;;;;;17.44;70.36;100414.56;4947607;29;1009;-56
2022/04/24 03:19:49;;;;;;;;;;;;;;;17.45;69.68;100412.75;4939909;29;1784;-56
2022/04/24 03:22:17;;;;;;;;;;;;;;;17.44;70.29;100425.25;4951891;29;1732;-56
2022/04/24 03:24:45;;;;;;;;;;;;;;;17.48;69.72;100425.84;4950988;29;1542;-56
2022/04/24 03:27:12;;;;;;;;;;;;;;;17.44;69.91;100427.94;4950498;29;1733;-56
2022/04/24 03:29:39;;;;;;;;;;;;;;;17.44;70.04;100429.75;4946249;29;1590;-56
2022/04/24 03:32:06;;;;;;;;;;;;;;;17.44;69.75;100430.59;4949126;29;1589;-56
2022/04/24 03:34:33;;;;;;;;;;;;;;;17.45;69.98;100434.97;4943230;28;1993;-56
2022/04/24 03:36:59;;;;;;;;;;;;;;;17.44;69.82;100433.28;4947943;29;1082;-56
2022/04/24 03:39:27;;;;;;;;;;;;;;;17.45;70.30;100447.50;4947059;29;1617;-56
2022/04/24 03:41:54;;;;;;;;;;;;;;;17.43;70.13;100452.13;4953151;29;1899;-56
2022/04/24 03:44:20;;;;;;;;;;;;;;;17.40;69.88;100450.56;4945401;28;1645;-56
2022/04/24 03:46:47;;;;;;;;;;;;;;;17.43;69.93;100450.31;4948349;29;1567;-56
2022/04/24 03:49:13;;;;;;;;;;;;;;;17.42;70.30;100450.44;4944457;28;1418;-56
2022/04/24 03:51:40;;;;;;;;;;;;;;;17.42;70.42;100458.44;4954279;29;1525;-56
2022/04/24 03:54:07;;;;;;;;;;;;;;;17.40;69.75;100450.56;4955245;28;1911;-57
2022/04/24 03:56:35;;;;;;;;;;;;;;;17.46;69.55;100462.56;4950128;28;1506;-57
2022/04/24 03:59:02;;;;;;;;;;;;;;;17.48;69.56;100453.41;4953255;29;1613;-56
2022/04/24 04:01:28;;;;;;;;;;;;;;;17.45;69.71;100461.72;4951383;28;1696;-56
2022/04/24 04:03:56;;;;;;;;;;;;;;;17.58;69.41;100455.28;4959751;29;1105;-57
2022/04/24 04:06:23;;;;;;;;;;;;;;;17.72;68.32;100459.44;4950013;28;1415;-59
2022/04/24 04:08:49;;;;;;;;;;;;;;;17.72;68.25;100456.75;4953713;29;1717;-55
2022/04/24 04:11:17;;;;;;;;;;;;;;;17.78;68.55;100454.38;4948480;28;1315;-58
2022/04/24 04:13:45;;;;;;;;;;;;;;;17.81;68.19;100462.16;4947888;28;1418;-58
2022/04/24 04:16:11;;;;;;;;;;;;;;;17.80;68.31;100457.78;4954030;29;1970;-56
2022/04/24 04:18:38;;;;;;;;;;;;;;;17.83;67.86;100462.91;4946005;29;972;-56
2022/04/24 04:21:05;;;;;;;;;;;;;;;18.02;67.86;100455.91;4952922;28;1517;-56
2022/04/24 04:23:31;;;;;;;;;;;;;;;18.16;67.13;100452.84;4952937;28;1364;-57
2022/04/24 04:25:58;;;;;;;;;;;;;;;18.07;67.72;100465.22;4948479;28;1398;-57
2022/04/24 04:28:25;;;;;;;;;;;;;;;18.00;68.48;100468.56;4944885;29;1146;-58
2022/04/24 04:30:53;;;;;;;;;;;;;;;17.97;68.85;100474.22;4948598;29;1745;-57
2022/04/24 04:33:20;;;;;;;;;;;;;;;17.95;69.08;100477.03;4948599;29;1515;-57
2022/04/24 04:35:47;;;;;;;;;;;;;;;18.02;68.42;100488.00;4949552;29;1902;-57
2022/04/24 04:38:14;;;;;;;;;;;;;;;17.93;69.28;100486.16;4948721;29;1606;-57
2022/04/24 04:40:41;;;;;;;;;;;;;;;18.01;68.82;100480.97;4952884;29;1632;-56
2022/04/24 04:43:08;;;;;;;;;;;;;;;17.99;69.36;100488.31;4950782;29;1565;-56
2022/04/24 04:45:35;;;;;;;;;;;;;;;17.97;69.01;100491.09;4949907;29;1566;-56
2022/04/24 04:48:03;;;;;;;;;;;;;;;17.97;69.04;100488.44;4954283;29;1533;-56
2022/04/24 04:50:29;;;;;;;;;;;;;;;18.03;68.79;100482.53;4952869;29;1725;-59
2022/04/24 04:52:56;;;;;;;;;;;;;;;18.05;68.51;100491.28;4948276;29;1575;-56
2022/04/24 04:55:22;;;;;;;;;;;;;;;18.07;69.15;100488.47;4949659;29;1911;-57
2022/04/24 04:57:50;;;;;;;;;;;;;;;18.09;69.22;100499.88;4949771;29;1622;-57
2022/04/24 05:00:17;;;;;;;;;;;;;;;18.05;68.42;100491.28;4949385;28;1375;-57
2022/04/24 05:02:44;;;;;;;;;;;;;;;18.12;68.87;100488.88;4950959;29;1612;-58
2022/04/24 05:05:12;;;;;;;;;;;;;;;18.15;68.68;100491.31;4952477;29;1745;-57
2022/04/24 05:07:38;;;;;;;;;;;;;;;18.16;68.74;100487.63;4945506;28;1390;-57
2022/04/24 05:10:06;;;;;;;;;;;;;;;18.19;68.89;100483.84;4949978;29;1554;-58
2022/04/24 05:12:33;;;;;;;;;;;;;;;18.22;68.65;100487.09;4948844;29;1571;-57
2022/04/24 05:15:03;;;;;;;;;;;;;;;18.27;68.22;100492.03;4948015;28;1981;-55
2022/04/24 05:17:29;;;;;;;;;;;;;;;18.28;68.54;100480.31;4947530;29;1029;-57
2022/04/24 05:19:56;;;;;;;;;;;;;;;18.37;68.39;100484.88;4954191;29;1762;-56
2022/04/24 05:22:24;;;;;;;;;;;;;;;18.37;68.31;100494.75;4949371;28;1430;-56
2022/04/24 05:24:51;;;;;;;;;;;;;;;18.31;68.08;100495.28;4948883;29;1578;-56
2022/04/24 05:27:19;;;;;;;;;;;;;;;18.29;67.81;100487.41;4948828;29;1586;-57
2022/04/24 05:29:46;;;;;;;;;;;;;;;18.37;67.96;100492.06;4949441;29;1082;-57
2022/04/24 05:32:12;;;;;;;;;;;;;;;18.40;67.58;100481.94;4951277;29;1717;-57
2022/04/24 05:34:39;;;;;;;;;;;;;;;18.47;67.70;100471.50;4955597;29;1906;-57
2022/04/24 05:37:06;;;;;;;;;;;;;;;18.50;67.47;100487.28;4952339;29;1550;-57
2022/04/24 05:39:34;;;;;;;;;;;;;;;18.50;68.04;100473.88;4949095;29;1035;-57
2022/04/24 05:42:00;;;;;;;;;;;;;;;18.49;67.92;100469.53;4949363;29;1733;-57
2022/04/24 05:44:27;;;;;;;;;;;;;;;18.49;67.83;100470.38;4948184;29;1796;-57
2022/04/24 05:46:53;;;;;;;;;;;;;;;18.50;67.96;100465.84;4951432;29;1632;-57
2022/04/24 05:49:20;;;;;;;;;;;;;;;18.52;67.86;100469.22;4941170;28;2070;-57
2022/04/24 05:51:47;;;;;;;;;;;;;;;18.52;68.08;100469.22;4949126;29;1075;-57
2022/04/24 05:54:15;;;;;;;;;;;;;;;18.47;68.03;100461.63;4945550;29;1098;-57
2022/04/24 05:56:43;;;;;;;;;;;;;;;18.51;68.12;100467.56;4950604;29;1956;-57
2022/04/24 05:59:09;;;;;;;;;;;;;;;18.48;67.87;100468.69;4948443;29;1785;-57
2022/04/24 06:01:36;;;;;;;;;;;;;;;18.52;68.06;100474.59;4947518;28;1891;-57
2022/04/24 06:04:02;;;;;;;;;;;;;;;18.53;68.03;100468.25;4955110;29;1060;-57
2022/04/24 06:06:31;;;;;;;;;;;;;;;18.52;68.33;100463.88;4948908;28;1556;-55
2022/04/24 06:08:57;;;;;;;;;;;;;;;18.57;67.82;100469.66;4949177;28;1713;-57
2022/04/24 06:11:24;;;;;;;;;;;;;;;18.60;67.92;100460.50;4947278;29;1789;-57
2022/04/24 06:13:52;;;;;;;;;;;;;;;18.64;68.04;100465.47;4953897;28;1363;-57
2022/04/24 06:16:19;;;;;;;;;;;;;;;18.67;67.60;100462.47;4946201;28;2001;-56
2022/04/24 06:18:45;;;;;;;;;;;;;;;18.66;67.95;100468.84;4942837;29;979;-57
2022/04/24 06:21:12;;;;;;;;;;;;;;;18.65;68.18;100471.66;4948580;29;1714;-57
2022/04/24 06:23:38;;;;;;;;;;;;;;;18.63;67.99;100461.06;4946896;29;1621;-57
2022/04/24 06:26:05;;;;;;;;;;;;;;;18.66;67.96;100466.16;4946233;29;1582;-57
2022/04/24 06:28:32;;;;;;;;;;;;;;;18.67;68.25;100469.69;4946957;28;1433;-57
2022/04/24 06:31:00;;;;;;;;;;;;;;;18.66;68.43;100471.53;4945613;28;1443;-57
2022/04/24 06:33:27;;;;;;;;;;;;;;;18.70;68.23;100469.38;4943491;29;975;-58
2022/04/24 06:35:55;;;;;;;;;;;;;;;18.71;68.19;100463.06;4945663;29;1906;-57
2022/04/24 06:38:23;;;;;;;;;;;;;;;18.73;68.10;100468.28;4942507;28;1410;-57
2022/04/24 06:40:49;;;;;;;;;;;;;;;18.67;68.27;100457.13;4945583;29;1633;-57
2022/04/24 06:43:16;;;;;;;;;;;;;;;18.81;68.05;100457.72;4947573;28;1418;-58
2022/04/24 06:45:43;;;;;;;;;;;;;;;18.80;67.54;100461.38;4952958;28;1533;-57
2022/04/24 06:48:11;;;;;;;;;;;;;;;18.80;68.02;100459.56;4933527;29;1679;-63
2022/04/24 06:50:39;;;;;;;;;;;;;;;18.79;68.23;100465.03;4947273;28;1161;-63
2022/04/24 06:53:07;;;;;;;;;;;;;;;18.77;67.97;100457.13;4945595;28;1415;-63
2022/04/24 06:55:34;;;;;;;;;;;;;;;18.78;68.23;100466.00;4943449;29;1903;-63
2022/04/24 06:58:02;;;;;;;;;;;;;;;18.80;68.45;100466.75;4949821;28;1667;-66
2022/04/24 07:00:30;;;;;;;;;;;;;;;19.02;67.31;100458.41;4945845;28;1434;-61
2022/04/24 07:02:56;;;;;;;;;;;;;;;18.94;67.67;100468.13;4950356;29;1442;-62
2022/04/24 07:05:25;;;;;;;;;;;;;;;19.23;67.22;100471.63;4948192;29;1894;-63
2022/04/24 07:07:52;;;;;;;;;;;;;;;19.20;67.35;100469.25;4948906;28;1684;-62
2022/04/24 07:10:18;;;;;;;;;;;;;;;19.12;67.82;100470.94;4947873;28;1297;-60
2022/04/24 07:12:46;;;;;;;;;;;;;;;19.01;68.53;100464.75;4261411;28;10000880;-60
2022/04/24 07:15:13;;;;;;;;;;;;;;;19.01;69.04;100477.31;4951783;28;1926;-60
2022/04/24 07:17:40;;;;;;;;;;;;;;;18.98;68.98;100474.91;4956339;28;1522;-60
2022/04/24 07:20:07;;;;;;;;;;;;;;;18.96;69.20;100475.06;4952963;28;1601;-60
2022/04/24 07:22:42;;;;;;;;;;;;;;;18.96;69.31;100475.06;4953485;28;1497;-61
2022/04/24 07:25:09;;;;;;;;;;;;;;;18.95;68.89;100469.84;4963049;28;1642;-60
2022/04/24 07:27:36;;;;;;;;;;;;;;;18.96;68.95;100482.25;4953182;28;1677;-60
2022/04/24 07:30:03;;;;;;;;;;;;;;;18.95;68.72;100476.03;4955050;28;1598;-58
2022/04/24 07:32:37;;;;;;;;;;;;;;;19.02;68.86;100479.84;4946904;29;1822;-66
2022/04/24 07:35:04;;;;;;;;;;;;;;;19.04;68.94;100475.19;4949216;28;1520;-62
2022/04/24 07:37:32;;;;;;;;;;;;;;;19.14;68.11;100469.84;4947367;29;1902;-65
2022/04/24 07:40:00;;;;;;;;;;;;;;;19.15;69.10;100476.88;4952199;28;1684;-54
2022/04/24 07:42:27;;;;;;;;;;;;;;;19.13;68.32;100478.00;4946978;29;1020;-53
2022/04/24 07:44:53;;;;;;;;;;;;;;;19.17;68.55;100474.03;4949956;29;1629;-53
2022/04/24 07:47:20;;;;;;;;;;;;;;;19.19;68.97;100478.28;4954657;28;1660;-55
2022/04/24 07:49:46;;;;;;;;;;;;;;;19.14;68.89;100463.59;4955143;28;1239;-53
2022/04/24 07:52:13;;;;;;;;;;;;;;;19.16;68.43;100477.72;4952283;29;1340;-53
2022/04/24 07:54:40;;;;;;;;;;;;;;;19.07;69.01;100474.91;4950097;29;1519;-56
2022/04/24 07:57:08;;;;;;;;;;;;;;;19.05;68.92;100471.50;4950786;29;1906;-55
2022/04/24 07:59:35;;;;;;;;;;;;;;;19.04;68.87;100463.66;4955456;29;1156;-55
2022/04/24 08:02:02;;;;;;;;;;;;;;;19.03;69.20;100476.16;4952691;28;1769;-56
2022/04/24 08:04:28;;;;;;;;;;;;;;;19.00;68.88;100462.22;4957005;28;1328;-55
2022/04/24 08:06:55;;;;;;;;;;;;;;;18.96;69.37;100468.84;4957503;28;1409;-55
2022/04/24 08:09:21;;;;;;;;;;;;;;;18.92;68.76;100446.88;4958636;29;1195;-55
2022/04/24 08:11:48;;;;;;;;;;;;;;;18.93;68.87;100456.59;4955747;28;1611;-54
2022/04/24 08:14:18;;;;;;;;;;;;;;;18.97;68.45;100458.00;4955217;29;1348;-55
2022/04/24 08:16:45;;;;;;;;;;;;;;;18.89;67.84;100449.81;4953082;28;1981;-55
2022/04/24 08:19:11;;;;;;;;;;;;;;;18.93;68.82;100455.75;4958365;28;1275;-56
2022/04/24 08:21:38;;;;;;;;;;;;;;;18.86;68.49;100445.59;4956781;29;1433;-55
2022/04/24 08:24:05;;;;;;;;;;;;;;;18.89;67.98;100447.16;4953442;28;1284;-55
2022/04/24 08:26:31;;;;;;;;;;;;;;;18.88;67.70;100437.44;4951862;28;1286;-55
2022/04/24 08:28:58;;;;;;;;;;;;;;;18.85;67.72;100432.34;4949242;29;1627;-55
2022/04/24 08:31:26;;;;;;;;;;;;;;;18.90;67.68;100435.44;4950996;29;1669;-55
2022/04/24 08:33:57;;;;;;;;;;;;;;;18.84;67.64;100425.28;4947014;29;1503;-55
2022/04/24 08:36:23;;;;;;;;;;;;;;;18.88;68.08;100424.03;4950102;28;1972;-54
2022/04/24 08:38:50;;;;;;;;;;;;;;;18.83;68.01;100419.09;4949518;28;1414;-54
2022/04/24 08:41:17;;;;;;;;;;;;;;;18.93;67.07;100419.06;4948332;28;1887;-54
2022/04/24 08:43:44;;;;;;;;;;;;;;;18.87;67.33;100419.66;4955615;29;1471;-55
2022/04/24 08:46:11;;;;;;;;;;;;;;;18.85;67.47;100417.09;4955551;28;1244;-54
2022/04/24 08:48:41;;;;;;;;;;;;;;;18.84;67.07;100414.56;4958414;29;1122;-54
2022/04/24 08:51:08;;;;;;;;;;;;;;;18.78;67.64;100431.19;4955312;28;1367;-54
2022/04/24 08:53:35;;;;;;;;;;;;;;;18.72;68.11;100410.31;4955253;29;1629;-55
2022/04/24 08:56:02;;;;;;;;;;;;;;;18.71;67.45;100419.34;4951895;29;1911;-54
2022/04/24 08:58:30;;;;;;;;;;;;;;;18.71;67.52;100408.66;4951303;28;1299;-54
2022/04/24 09:00:57;;;;;;;;;;;;;;;18.69;67.58;100403.44;4950068;29;1723;-54
2022/04/24 09:03:23;;;;;;;;;;;;;;;18.67;67.73;100398.19;4954296;29;1637;-54
2022/04/24 09:05:51;;;;;;;;;;;;;;;18.64;67.94;100398.50;4952634;29;1772;-54
2022/04/24 09:08:24;;;;;;;;;;;;;;;18.65;67.79;100394.81;4952223;29;1479;-54
2022/04/24 09:10:51;;;;;;;;;;;;;;;18.60;67.98;100399.78;4955180;28;1410;-55
2022/04/24 09:13:27;;;;;;;;;;;;;;;18.59;68.20;100398.06;4951620;29;1430;-54
2022/04/24 09:15:54;;;;;;;;;;;;;;;18.60;67.90;100399.78;4955271;28;1976;-54
2022/04/24 09:18:21;;;;;;;;;;;;;;;18.56;68.07;100384.13;4957592;29;1339;-53
2022/04/24 09:20:54;;;;;;;;;;;;;;;18.69;67.57;100385.50;4952434;29;1740;-54
2022/04/24 09:23:22;;;;;;;;;;;;;;;18.71;67.22;100382.69;4949409;28;1392;-54
2022/04/24 09:25:48;;;;;;;;;;;;;;;18.70;66.90;100389.03;4954362;29;1593;-55
2022/04/24 09:28:15;;;;;;;;;;;;;;;18.76;66.71;100379.59;4952026;29;1408;-54
2022/04/24 09:30:49;;;;;;;;;;;;;;;18.69;66.16;100372.13;4953473;28;1327;-54
2022/04/24 09:33:15;;;;;;;;;;;;;;;18.65;66.28;100373.41;4947434;29;1019;-54
2022/04/24 09:35:43;;;;;;;;;;;;;;;18.62;65.94;100360.31;4948730;29;1409;-54
2022/04/24 09:38:10;;;;;;;;;;;;;;;18.60;65.68;100359.59;4953543;29;1970;-54
2022/04/24 09:40:42;;;;;;;;;;;;;;;18.60;65.52;100364.97;4953320;28;1395;-54
2022/04/24 09:43:09;;;;;;;;;;;;;;;18.60;65.66;100359.59;4954196;28;1525;-53
2022/04/24 09:45:35;;;;;;;;;;;;;;;18.59;65.21;100363.25;4953723;28;1406;-54
2022/04/24 09:48:03;;;;;;;;;;;;;;;18.58;65.04;100355.34;4955997;29;1581;-54
2022/04/24 09:50:30;;;;;;;;;;;;;;;18.60;64.73;100354.25;4952695;29;1621;-53
2022/04/24 09:52:56;;;;;;;;;;;;;;;18.58;64.90;100345.53;4947333;29;1452;-53
2022/04/24 09:55:24;;;;;;;;;;;;;;;18.54;64.60;100337.88;4954684;29;1645;-54
2022/04/24 09:57:52;;;;;;;;;;;;;;;18.58;64.41;100342.84;4952348;29;1973;-54
2022/04/24 10:00:19;;;;;;;;;;;;;;;18.56;64.26;100330.56;4953120;29;1455;-54
2022/04/24 10:02:46;;;;;;;;;;;;;;;18.56;64.17;100327.88;4950377;29;1872;-54
2022/04/24 10:05:15;;;;;;;;;;;;;;;18.53;64.35;100326.34;4951241;29;1431;-54
2022/04/24 10:07:41;;;;;;;;;;;;;;;18.60;64.16;100326.59;4955574;29;1723;-54
2022/04/24 10:10:08;;;;;;;;;;;;;;;18.59;63.69;100307.03;4945719;29;1537;-54
2022/04/24 10:12:35;;;;;;;;;;;;;;;18.58;63.59;100318.75;4950696;29;1514;-53
2022/04/24 10:15:06;;;;;;;;;;;;;;;18.69;62.28;100309.69;4954730;29;1497;-52
2022/04/24 10:17:42;;;;;;;;;;;;;;;18.74;61.93;100306.56;4946373;29;1906;-53
2022/04/24 10:20:23;;;;;;;;;;;;;;;18.66;62.41;100313.50;4940984;28;1494;-53
2022/04/24 10:22:53;;;;;;;;;;;;;;;18.83;60.48;100309.25;4949140;29;1646;-53
2022/04/24 10:25:29;;;;;;;;;;;;;;;18.88;60.64;100312.34;4951866;29;1383;-53
2022/04/24 10:27:55;;;;;;;;;;;;;;;18.91;60.21;100292.44;4956047;29;1485;-54
2022/04/24 10:30:24;;;;;;;;;;;;;;;18.87;60.33;100299.09;4953468;28;1660;-54
2022/04/24 10:33:11;;;;;;;;;;;;;;;18.90;61.32;100301.50;4954469;28;1168;-54
2022/04/24 10:35:48;;;;;;;;;;;;;;;18.97;60.07;100307.94;4950343;29;1522;-54
2022/04/24 10:38:15;;;;;;;;;;;;;;;18.87;59.59;100302.59;4945886;29;1952;-53
2022/04/24 10:40:41;;;;;;;;;;;;;;;18.83;58.57;100303.06;4947139;29;1869;-54
2022/04/24 10:43:08;;;;;;;;;;;;;;;18.83;58.33;100300.38;4947793;29;1618;-53
2022/04/24 10:45:45;;;;;;;;;;;;;;;18.79;58.49;100296.25;4954460;28;1221;-53
2022/04/24 10:48:14;;;;;;;;;;;;;;;18.82;58.84;100304.03;4955769;29;1484;-54
2022/04/24 10:50:48;;;;;;;;;;;;;;;18.74;59.66;100290.50;4950244;28;1370;-54
2022/04/24 10:53:15;;;;;;;;;;;;;;;18.71;59.51;100288.13;4953885;29;1462;-54
2022/04/24 10:55:42;;;;;;;;;;;;;;;18.67;59.95;100288.38;4953272;28;1331;-54
2022/04/24 10:58:10;;;;;;;;;;;;;;;18.66;60.21;100288.53;4950341;28;1971;-55
2022/04/24 11:00:38;;;;;;;;;;;;;;;18.77;59.41;100279.50;4950191;29;1591;-54
2022/04/24 11:03:06;;;;;;;;;;;;;;;18.72;59.45;100282.63;4955110;29;1373;-54
2022/04/24 11:05:36;;;;;;;;;;;;;;;18.73;58.86;100294.16;4954292;29;1975;-54
2022/04/24 11:08:05;;;;;;;;;;;;;;;18.77;57.94;100287.53;4950008;29;1371;-54
2022/04/24 11:10:39;;;;;;;;;;;;;;;18.75;58.25;100286.84;4946910;29;1598;-54
2022/04/24 11:13:05;;;;;;;;;;;;;;;18.75;58.38;100292.19;4949825;29;1345;-54
2022/04/24 11:15:32;;;;;;;;;;;;;;;18.71;58.17;100270.22;4949605;29;1583;-54
2022/04/24 11:17:58;;;;;;;;;;;;;;;18.79;57.10;100288.22;4953375;29;1977;-54
2022/04/24 11:20:31;;;;;;;;;;;;;;;18.90;57.42;100268.47;4950580;29;1716;-54
2022/04/24 11:22:57;;;;;;;;;;;;;;;19.02;56.38;100270.84;4949176;28;1391;-54
2022/04/24 11:25:27;;;;;;;;;;;;;;;18.93;58.05;100262.84;4946469;28;1430;-55
2022/04/24 11:27:54;;;;;;;;;;;;;;;18.79;58.45;100266.81;4947944;29;1578;-55
2022/04/24 11:30:23;;;;;;;;;;;;;;;18.72;58.91;100271.03;4948252;29;1583;-54
2022/04/24 11:32:57;;;;;;;;;;;;;;;18.69;58.94;100265.00;4950365;29;980;-55
2022/04/24 11:35:24;;;;;;;;;;;;;;;18.67;58.90;100264.28;4949971;29;1733;-55
2022/04/24 11:37:51;;;;;;;;;;;;;;;18.64;58.79;100248.53;4954323;29;1910;-55
2022/04/24 11:40:18;;;;;;;;;;;;;;;18.66;58.79;100256.41;4954173;28;1203;-56
2022/04/24 11:42:46;;;;;;;;;;;;;;;18.67;58.09;100250.06;4953632;28;1276;-55
2022/04/24 11:50:53;;;;;;;;;;;;;;;18.82;57.70;100255.81;4949062;29;1559;-55
2022/04/24 11:53:20;;;;;;;;;;;;;;;18.88;57.39;100241.84;4946032;29;1575;-54
2022/04/24 11:56:03;;;;;;;;;;;;;;;18.78;58.04;100233.81;4950038;29;1380;-56
2022/04/24 11:58:34;;;;;;;;;;;;;;;18.73;58.66;100229.88;4947830;28;1906;-55
2022/04/24 12:01:02;;;;;;;;;;;;;;;18.69;58.58;100229.34;4950892;28;1286;-54
2022/04/24 12:03:29;;;;;;;;;;;;;;;18.77;57.97;100239.31;4948962;29;1017;-55
2022/04/24 12:05:57;;;;;;;;;;;;;;;18.75;58.03;100226.06;4950057;29;1776;-55
2022/04/24 12:08:24;;;;;;;;;;;;;;;18.80;57.62;100236.34;4952764;28;1626;-53
2022/04/24 12:10:51;;;;;;;;;;;;;;;18.74;57.12;100231.56;4957746;29;1427;-53
2022/04/24 12:13:22;;;;;;;;;;;;;;;18.83;57.28;100236.09;4948888;29;1586;-53
2022/04/24 12:15:53;;;;;;;;;;;;;;;18.80;57.65;100241.72;4951987;29;1376;-55
2022/04/24 12:18:24;;;;;;;;;;;;;;;18.62;56.53;100228.22;4956802;29;1910;-56
2022/04/24 12:20:50;;;;;;;;;;;;;;;18.81;57.23;100230.03;4953208;29;1795;-57
2022/04/24 12:23:18;;;;;;;;;;;;;;;18.73;57.27;100206.63;4955376;29;1459;-56
2022/04/24 12:25:48;;;;;;;;;;;;;;;18.68;57.66;100207.06;4957914;29;1475;-56
2022/04/24 12:28:27;;;;;;;;;;;;;;;18.71;57.21;100213.13;4958514;29;1268;-54
2022/04/24 12:30:55;;;;;;;;;;;;;;;18.68;57.75;100212.44;4948459;28;1533;-54
2022/04/24 12:33:22;;;;;;;;;;;;;;;18.70;56.88;100204.22;4944295;29;1146;-54
2022/04/24 12:35:49;;;;;;;;;;;;;;;18.77;56.77;100212.53;4949357;29;1606;-54
2022/04/24 12:38:16;;;;;;;;;;;;;;;18.82;56.38;100212.94;4952733;29;1906;-53
2022/04/24 12:40:42;;;;;;;;;;;;;;;18.82;56.41;100204.91;4955350;29;1455;-54
2022/04/24 12:43:09;;;;;;;;;;;;;;;18.87;55.73;100216.03;4955726;29;1300;-54
2022/04/24 12:45:36;;;;;;;;;;;;;;;18.82;57.20;100212.94;4949525;29;1649;-56
2022/04/24 12:48:04;;;;;;;;;;;;;;;18.78;57.08;100199.00;4948912;29;1047;-53
2022/04/24 12:50:31;;;;;;;;;;;;;;;18.76;57.64;100203.66;4944060;28;1402;-54
2022/04/24 12:52:57;;;;;;;;;;;;;;;18.74;57.53;100194.94;4954779;29;1383;-54
2022/04/24 12:55:24;;;;;;;;;;;;;;;18.73;57.71;100203.09;4956896;29;1431;-56